sensor_id;sensor_type;location;lat;lon;timestamp;temperature;humidity
12708;DHT22;6418;50.824;4.718;2022-12-18T00:00:09;-6.90;99.90
12708;DHT22;6418;50.824;4.718;2022-12-18T00:02:36;-6.90;99.90
12708;DHT22;6418;50.824;4.718;2022-12-18T00:05:04;-7.00;99.90
12708;DHT22;6418;50.824;4.718;2022-12-18T00:07:31;-7.00;99.90
12708;DHT22;6418;50.824;4.718;2022-12-18T00:09:58;-7.10;99.90
12708;DHT22;6418;50.824;4.718;2022-12-18T00:12:25;-7.10;99.90
12708;DHT22;6418;50.824;4.718;2022-12-18T00:14:51;-7.10;99.90
12708;DHT22;6418;50.824;4.718;2022-12-18T00:17:20;-7.20;99.90
12708;DHT22;6418;50.824;4.718;2022-12-18T00:19:46;-7.20;99.90
12708;DHT22;6418;50.824;4.718;2022-12-18T00:22:13;-7.20;99.90
12708;DHT22;6418;50.824;4.718;2022-12-18T00:24:40;-7.20;99.90
12708;DHT22;6418;50.824;4.718;2022-12-18T00:27:07;-7.20;99.90
12708;DHT22;6418;50.824;4.718;2022-12-18T00:29:34;-7.30;99.90
12708;DHT22;6418;50.824;4.718;2022-12-18T00:32:01;-7.30;99.90
12708;DHT22;6418;50.824;4.718;2022-12-18T00:34:29;-7.40;99.90
12708;DHT22;6418;50.824;4.718;2022-12-18T00:36:56;-7.40;99.90
12708;DHT22;6418;50.824;4.718;2022-12-18T00:39:23;-7.40;99.90
12708;DHT22;6418;50.824;4.718;2022-12-18T00:41:49;-7.40;99.90
12708;DHT22;6418;50.824;4.718;2022-12-18T00:44:33;-7.40;99.90
12708;DHT22;6418;50.824;4.718;2022-12-18T00:47:00;-7.40;99.90
12708;DHT22;6418;50.824;4.718;2022-12-18T00:49:28;-7.50;99.90
12708;DHT22;6418;50.824;4.718;2022-12-18T00:51:55;-7.50;99.90
12708;DHT22;6418;50.824;4.718;2022-12-18T00:54:22;-7.50;99.90
12708;DHT22;6418;50.824;4.718;2022-12-18T00:56:49;-7.50;99.90
12708;DHT22;6418;50.824;4.718;2022-12-18T00:59:17;-7.50;99.90
12708;DHT22;6418;50.824;4.718;2022-12-18T01:01:45;-7.50;99.90
12708;DHT22;6418;50.824;4.718;2022-12-18T01:04:12;-7.50;99.90
12708;DHT22;6418;50.824;4.718;2022-12-18T01:06:40;-7.60;99.90
12708;DHT22;6418;50.824;4.718;2022-12-18T01:09:07;-7.60;99.90
12708;DHT22;6418;50.824;4.718;2022-12-18T01:11:34;-7.60;99.90
12708;DHT22;6418;50.824;4.718;2022-12-18T01:14:01;-7.70;99.90
12708;DHT22;6418;50.824;4.718;2022-12-18T01:16:28;-7.70;99.90
12708;DHT22;6418;50.824;4.718;2022-12-18T01:18:55;-7.70;99.90
12708;DHT22;6418;50.824;4.718;2022-12-18T01:21:23;-7.70;99.90
12708;DHT22;6418;50.824;4.718;2022-12-18T01:23:53;-7.70;99.90
12708;DHT22;6418;50.824;4.718;2022-12-18T01:26:20;-7.80;99.90
12708;DHT22;6418;50.824;4.718;2022-12-18T01:28:48;-7.70;99.90
12708;DHT22;6418;50.824;4.718;2022-12-18T01:31:17;-7.80;99.90
12708;DHT22;6418;50.824;4.718;2022-12-18T01:33:44;-7.80;99.90
12708;DHT22;6418;50.824;4.718;2022-12-18T01:36:17;-7.80;99.90
12708;DHT22;6418;50.824;4.718;2022-12-18T01:38:45;-7.80;99.90
12708;DHT22;6418;50.824;4.718;2022-12-18T01:41:14;-7.80;99.90
12708;DHT22;6418;50.824;4.718;2022-12-18T01:43:47;-7.90;99.90
12708;DHT22;6418;50.824;4.718;2022-12-18T01:46:15;-7.90;99.90
12708;DHT22;6418;50.824;4.718;2022-12-18T01:48:42;-7.90;99.90
12708;DHT22;6418;50.824;4.718;2022-12-18T01:51:11;-7.90;99.90
12708;DHT22;6418;50.824;4.718;2022-12-18T01:53:40;-7.90;99.90
12708;DHT22;6418;50.824;4.718;2022-12-18T01:56:08;-7.90;99.90
12708;DHT22;6418;50.824;4.718;2022-12-18T01:58:46;-7.90;99.90
12708;DHT22;6418;50.824;4.718;2022-12-18T02:01:14;-8.00;99.90
12708;DHT22;6418;50.824;4.718;2022-12-18T02:03:42;-8.00;99.90
12708;DHT22;6418;50.824;4.718;2022-12-18T02:06:13;-8.00;99.90
12708;DHT22;6418;50.824;4.718;2022-12-18T02:08:50;-8.00;99.90
12708;DHT22;6418;50.824;4.718;2022-12-18T02:11:32;-8.00;99.90
12708;DHT22;6418;50.824;4.718;2022-12-18T02:14:14;-8.00;99.90
12708;DHT22;6418;50.824;4.718;2022-12-18T02:16:46;-7.90;99.90
12708;DHT22;6418;50.824;4.718;2022-12-18T02:19:36;-8.00;99.90
12708;DHT22;6418;50.824;4.718;2022-12-18T02:22:23;-7.90;99.90
12708;DHT22;6418;50.824;4.718;2022-12-18T02:25:00;-7.90;99.90
12708;DHT22;6418;50.824;4.718;2022-12-18T02:27:34;-7.80;99.90
12708;DHT22;6418;50.824;4.718;2022-12-18T02:30:03;-7.80;99.90
12708;DHT22;6418;50.824;4.718;2022-12-18T02:32:34;-7.80;99.90
12708;DHT22;6418;50.824;4.718;2022-12-18T02:35:04;-7.70;99.90
12708;DHT22;6418;50.824;4.718;2022-12-18T02:37:32;-7.70;99.90
12708;DHT22;6418;50.824;4.718;2022-12-18T02:40:00;-7.70;99.90
12708;DHT22;6418;50.824;4.718;2022-12-18T02:42:29;-7.70;99.90
12708;DHT22;6418;50.824;4.718;2022-12-18T02:44:58;-7.70;99.90
12708;DHT22;6418;50.824;4.718;2022-12-18T02:47:28;-7.70;99.90
12708;DHT22;6418;50.824;4.718;2022-12-18T02:50:02;-7.60;99.90
12708;DHT22;6418;50.824;4.718;2022-12-18T02:52:34;-7.70;99.90
12708;DHT22;6418;50.824;4.718;2022-12-18T02:55:13;-7.70;99.90
12708;DHT22;6418;50.824;4.718;2022-12-18T02:57:45;-7.70;99.90
12708;DHT22;6418;50.824;4.718;2022-12-18T03:00:16;-7.70;99.90
12708;DHT22;6418;50.824;4.718;2022-12-18T03:02:47;-7.70;99.90
12708;DHT22;6418;50.824;4.718;2022-12-18T03:05:18;-7.70;99.90
12708;DHT22;6418;50.824;4.718;2022-12-18T03:07:49;-7.80;99.90
12708;DHT22;6418;50.824;4.718;2022-12-18T03:10:23;-7.80;99.90
12708;DHT22;6418;50.824;4.718;2022-12-18T03:12:53;-7.90;99.90
12708;DHT22;6418;50.824;4.718;2022-12-18T03:15:24;-7.90;99.90
12708;DHT22;6418;50.824;4.718;2022-12-18T03:17:57;-7.90;99.90
12708;DHT22;6418;50.824;4.718;2022-12-18T03:20:27;-7.90;99.90
12708;DHT22;6418;50.824;4.718;2022-12-18T03:22:59;-8.00;99.90
12708;DHT22;6418;50.824;4.718;2022-12-18T03:25:30;-8.00;99.90
12708;DHT22;6418;50.824;4.718;2022-12-18T03:28:00;-8.00;99.90
12708;DHT22;6418;50.824;4.718;2022-12-18T03:30:33;-8.10;99.90
12708;DHT22;6418;50.824;4.718;2022-12-18T03:33:08;-8.10;99.90
12708;DHT22;6418;50.824;4.718;2022-12-18T03:35:37;-8.10;99.90
12708;DHT22;6418;50.824;4.718;2022-12-18T03:38:05;-8.20;99.90
12708;DHT22;6418;50.824;4.718;2022-12-18T03:40:38;-8.20;99.90
12708;DHT22;6418;50.824;4.718;2022-12-18T03:43:10;-8.20;99.90
12708;DHT22;6418;50.824;4.718;2022-12-18T03:45:43;-8.20;99.90
12708;DHT22;6418;50.824;4.718;2022-12-18T03:48:18;-8.20;99.90
12708;DHT22;6418;50.824;4.718;2022-12-18T03:50:48;-8.30;99.90
12708;DHT22;6418;50.824;4.718;2022-12-18T03:53:25;-8.30;99.90
12708;DHT22;6418;50.824;4.718;2022-12-18T03:55:56;-8.30;99.90
12708;DHT22;6418;50.824;4.718;2022-12-18T03:58:25;-8.30;99.90
12708;DHT22;6418;50.824;4.718;2022-12-18T04:00:56;-8.30;99.90
12708;DHT22;6418;50.824;4.718;2022-12-18T04:03:26;-8.30;99.90
12708;DHT22;6418;50.824;4.718;2022-12-18T04:05:54;-8.30;99.90
12708;DHT22;6418;50.824;4.718;2022-12-18T04:08:22;-8.30;99.90
12708;DHT22;6418;50.824;4.718;2022-12-18T04:10:50;-8.30;99.90
12708;DHT22;6418;50.824;4.718;2022-12-18T04:13:22;-8.30;99.90
12708;DHT22;6418;50.824;4.718;2022-12-18T04:15:48;-8.30;99.90
12708;DHT22;6418;50.824;4.718;2022-12-18T04:18:17;-8.30;99.90
12708;DHT22;6418;50.824;4.718;2022-12-18T04:20:43;-8.30;99.90
12708;DHT22;6418;50.824;4.718;2022-12-18T04:23:10;-8.20;99.90
12708;DHT22;6418;50.824;4.718;2022-12-18T04:25:37;-8.20;99.90
12708;DHT22;6418;50.824;4.718;2022-12-18T04:28:04;-8.20;99.90
12708;DHT22;6418;50.824;4.718;2022-12-18T04:30:31;-8.10;99.90
12708;DHT22;6418;50.824;4.718;2022-12-18T04:32:58;-8.10;99.90
12708;DHT22;6418;50.824;4.718;2022-12-18T04:35:26;-8.10;99.90
12708;DHT22;6418;50.824;4.718;2022-12-18T04:37:53;-8.10;99.90
12708;DHT22;6418;50.824;4.718;2022-12-18T04:40:20;-8.10;99.90
12708;DHT22;6418;50.824;4.718;2022-12-18T04:42:47;-8.00;99.90
12708;DHT22;6418;50.824;4.718;2022-12-18T04:45:14;-8.00;99.90
12708;DHT22;6418;50.824;4.718;2022-12-18T04:47:41;-8.00;99.90
12708;DHT22;6418;50.824;4.718;2022-12-18T04:50:08;-8.00;99.90
12708;DHT22;6418;50.824;4.718;2022-12-18T04:52:36;-8.00;99.90
12708;DHT22;6418;50.824;4.718;2022-12-18T04:55:03;-8.00;99.90
12708;DHT22;6418;50.824;4.718;2022-12-18T04:57:30;-8.00;99.90
12708;DHT22;6418;50.824;4.718;2022-12-18T04:59:57;-8.00;99.90
12708;DHT22;6418;50.824;4.718;2022-12-18T05:02:24;-8.00;99.90
12708;DHT22;6418;50.824;4.718;2022-12-18T05:04:52;-8.00;99.90
12708;DHT22;6418;50.824;4.718;2022-12-18T05:07:19;-8.00;99.90
12708;DHT22;6418;50.824;4.718;2022-12-18T05:09:47;-8.00;99.90
12708;DHT22;6418;50.824;4.718;2022-12-18T05:12:14;-8.10;99.90
12708;DHT22;6418;50.824;4.718;2022-12-18T05:14:40;-8.10;99.90
12708;DHT22;6418;50.824;4.718;2022-12-18T05:17:07;-8.10;99.90
12708;DHT22;6418;50.824;4.718;2022-12-18T05:19:34;-8.10;99.90
12708;DHT22;6418;50.824;4.718;2022-12-18T05:22:01;-8.20;99.90
12708;DHT22;6418;50.824;4.718;2022-12-18T05:24:28;-8.20;99.90
12708;DHT22;6418;50.824;4.718;2022-12-18T05:26:56;-8.20;99.90
12708;DHT22;6418;50.824;4.718;2022-12-18T05:29:23;-8.30;99.90
12708;DHT22;6418;50.824;4.718;2022-12-18T05:31:50;-8.30;99.90
12708;DHT22;6418;50.824;4.718;2022-12-18T05:34:17;-8.30;99.90
12708;DHT22;6418;50.824;4.718;2022-12-18T05:36:44;-8.40;99.90
12708;DHT22;6418;50.824;4.718;2022-12-18T05:39:11;-8.40;99.90
12708;DHT22;6418;50.824;4.718;2022-12-18T05:41:38;-8.40;99.90
12708;DHT22;6418;50.824;4.718;2022-12-18T05:44:06;-8.40;99.90
12708;DHT22;6418;50.824;4.718;2022-12-18T05:46:33;-8.40;99.90
12708;DHT22;6418;50.824;4.718;2022-12-18T05:49:00;-8.50;99.90
12708;DHT22;6418;50.824;4.718;2022-12-18T05:51:27;-8.50;99.90
12708;DHT22;6418;50.824;4.718;2022-12-18T05:53:54;-8.50;99.90
12708;DHT22;6418;50.824;4.718;2022-12-18T05:56:22;-8.50;99.90
12708;DHT22;6418;50.824;4.718;2022-12-18T05:58:51;-8.50;99.90
12708;DHT22;6418;50.824;4.718;2022-12-18T06:01:23;-8.50;99.90
12708;DHT22;6418;50.824;4.718;2022-12-18T06:03:50;-8.60;99.90
12708;DHT22;6418;50.824;4.718;2022-12-18T06:06:18;-8.50;99.90
12708;DHT22;6418;50.824;4.718;2022-12-18T06:08:46;-8.60;99.90
12708;DHT22;6418;50.824;4.718;2022-12-18T06:11:15;-8.60;99.90
12708;DHT22;6418;50.824;4.718;2022-12-18T06:13:42;-8.60;99.90
12708;DHT22;6418;50.824;4.718;2022-12-18T06:16:09;-8.60;99.90
12708;DHT22;6418;50.824;4.718;2022-12-18T06:18:38;-8.60;99.90
12708;DHT22;6418;50.824;4.718;2022-12-18T06:21:05;-8.60;99.90
12708;DHT22;6418;50.824;4.718;2022-12-18T06:23:32;-8.70;99.90
12708;DHT22;6418;50.824;4.718;2022-12-18T06:26:02;-8.70;99.90
12708;DHT22;6418;50.824;4.718;2022-12-18T06:28:29;-8.70;99.90
12708;DHT22;6418;50.824;4.718;2022-12-18T06:30:56;-8.70;99.90
12708;DHT22;6418;50.824;4.718;2022-12-18T06:33:26;-8.70;99.90
12708;DHT22;6418;50.824;4.718;2022-12-18T06:35:59;-8.70;99.90
12708;DHT22;6418;50.824;4.718;2022-12-18T06:38:26;-8.70;99.90
12708;DHT22;6418;50.824;4.718;2022-12-18T06:40:53;-8.70;99.90
12708;DHT22;6418;50.824;4.718;2022-12-18T06:43:19;-8.70;99.90
12708;DHT22;6418;50.824;4.718;2022-12-18T06:45:46;-8.70;99.90
12708;DHT22;6418;50.824;4.718;2022-12-18T06:48:18;-8.70;99.90
12708;DHT22;6418;50.824;4.718;2022-12-18T06:50:44;-8.70;99.90
12708;DHT22;6418;50.824;4.718;2022-12-18T06:53:13;-8.70;99.90
12708;DHT22;6418;50.824;4.718;2022-12-18T06:55:40;-8.70;99.90
12708;DHT22;6418;50.824;4.718;2022-12-18T06:58:07;-8.70;99.90
12708;DHT22;6418;50.824;4.718;2022-12-18T07:00:33;-8.70;99.90
12708;DHT22;6418;50.824;4.718;2022-12-18T07:03:00;-8.70;99.90
12708;DHT22;6418;50.824;4.718;2022-12-18T07:05:27;-8.70;99.90
12708;DHT22;6418;50.824;4.718;2022-12-18T07:07:54;-8.70;99.90
12708;DHT22;6418;50.824;4.718;2022-12-18T07:10:22;-8.70;99.90
12708;DHT22;6418;50.824;4.718;2022-12-18T07:12:49;-8.70;99.90
12708;DHT22;6418;50.824;4.718;2022-12-18T07:15:16;-8.70;99.90
12708;DHT22;6418;50.824;4.718;2022-12-18T07:17:43;-8.70;99.90
12708;DHT22;6418;50.824;4.718;2022-12-18T07:20:10;-8.70;99.90
12708;DHT22;6418;50.824;4.718;2022-12-18T07:22:37;-8.70;99.90
12708;DHT22;6418;50.824;4.718;2022-12-18T07:25:05;-8.70;99.90
12708;DHT22;6418;50.824;4.718;2022-12-18T07:27:33;-8.60;99.90
12708;DHT22;6418;50.824;4.718;2022-12-18T07:30:00;-8.60;99.90
12708;DHT22;6418;50.824;4.718;2022-12-18T07:32:27;-8.60;99.90
12708;DHT22;6418;50.824;4.718;2022-12-18T07:34:54;-8.60;99.90
12708;DHT22;6418;50.824;4.718;2022-12-18T07:37:21;-8.60;99.90
12708;DHT22;6418;50.824;4.718;2022-12-18T07:39:48;-8.60;99.90
12708;DHT22;6418;50.824;4.718;2022-12-18T07:42:15;-8.60;99.90
12708;DHT22;6418;50.824;4.718;2022-12-18T07:45:01;-8.50;99.90
12708;DHT22;6418;50.824;4.718;2022-12-18T07:47:29;-8.50;99.90
12708;DHT22;6418;50.824;4.718;2022-12-18T07:49:55;-8.50;99.90
12708;DHT22;6418;50.824;4.718;2022-12-18T07:52:22;-8.50;99.90
12708;DHT22;6418;50.824;4.718;2022-12-18T07:54:49;-8.50;99.90
12708;DHT22;6418;50.824;4.718;2022-12-18T07:57:16;-8.50;99.90
12708;DHT22;6418;50.824;4.718;2022-12-18T07:59:43;-8.50;99.90
12708;DHT22;6418;50.824;4.718;2022-12-18T08:02:11;-8.50;99.90
12708;DHT22;6418;50.824;4.718;2022-12-18T08:04:38;-8.40;99.90
12708;DHT22;6418;50.824;4.718;2022-12-18T08:07:05;-8.40;99.90
12708;DHT22;6418;50.824;4.718;2022-12-18T08:09:32;-8.30;99.90
12708;DHT22;6418;50.824;4.718;2022-12-18T08:11:59;-8.30;99.90
12708;DHT22;6418;50.824;4.718;2022-12-18T08:14:26;-8.20;99.90
12708;DHT22;6418;50.824;4.718;2022-12-18T08:16:52;-8.00;99.90
12708;DHT22;6418;50.824;4.718;2022-12-18T08:19:21;-7.90;99.90
12708;DHT22;6418;50.824;4.718;2022-12-18T08:21:48;-7.90;99.90
12708;DHT22;6418;50.824;4.718;2022-12-18T08:24:14;-7.90;99.90
12708;DHT22;6418;50.824;4.718;2022-12-18T08:26:41;-7.80;99.90
12708;DHT22;6418;50.824;4.718;2022-12-18T08:29:09;-7.70;99.90
12708;DHT22;6418;50.824;4.718;2022-12-18T08:31:36;-7.50;99.90
12708;DHT22;6418;50.824;4.718;2022-12-18T08:34:03;-7.40;99.90
12708;DHT22;6418;50.824;4.718;2022-12-18T08:36:31;-7.30;99.90
12708;DHT22;6418;50.824;4.718;2022-12-18T08:38:58;-7.20;99.90
12708;DHT22;6418;50.824;4.718;2022-12-18T08:41:25;-7.00;99.90
12708;DHT22;6418;50.824;4.718;2022-12-18T08:43:52;-6.90;99.90
12708;DHT22;6418;50.824;4.718;2022-12-18T08:46:38;-6.70;99.90
12708;DHT22;6418;50.824;4.718;2022-12-18T08:49:06;-6.50;99.90
12708;DHT22;6418;50.824;4.718;2022-12-18T08:51:34;-6.30;99.90
12708;DHT22;6418;50.824;4.718;2022-12-18T08:54:02;-6.20;99.90
12708;DHT22;6418;50.824;4.718;2022-12-18T08:56:29;-6.00;99.90
12708;DHT22;6418;50.824;4.718;2022-12-18T08:58:57;-6.00;99.90
12708;DHT22;6418;50.824;4.718;2022-12-18T09:01:24;-5.90;99.90
12708;DHT22;6418;50.824;4.718;2022-12-18T09:03:51;-5.80;99.90
12708;DHT22;6418;50.824;4.718;2022-12-18T09:06:20;-5.70;99.90
12708;DHT22;6418;50.824;4.718;2022-12-18T09:08:48;-5.60;99.90
12708;DHT22;6418;50.824;4.718;2022-12-18T09:11:20;-5.40;99.90
12708;DHT22;6418;50.824;4.718;2022-12-18T09:13:47;-5.30;99.90
12708;DHT22;6418;50.824;4.718;2022-12-18T09:16:14;-5.20;99.90
12708;DHT22;6418;50.824;4.718;2022-12-18T09:18:41;-5.10;99.90
12708;DHT22;6418;50.824;4.718;2022-12-18T09:21:09;-5.00;99.90
12708;DHT22;6418;50.824;4.718;2022-12-18T09:23:36;-4.90;99.90
12708;DHT22;6418;50.824;4.718;2022-12-18T09:26:05;-4.90;99.90
12708;DHT22;6418;50.824;4.718;2022-12-18T09:28:32;-4.90;99.90
12708;DHT22;6418;50.824;4.718;2022-12-18T09:30:58;-4.80;99.90
12708;DHT22;6418;50.824;4.718;2022-12-18T09:33:25;-4.70;99.90
12708;DHT22;6418;50.824;4.718;2022-12-18T09:35:52;-4.50;99.90
12708;DHT22;6418;50.824;4.718;2022-12-18T09:38:20;-4.60;99.90
12708;DHT22;6418;50.824;4.718;2022-12-18T09:40:49;-4.60;99.90
12708;DHT22;6418;50.824;4.718;2022-12-18T09:43:20;-4.50;99.90
12708;DHT22;6418;50.824;4.718;2022-12-18T09:45:50;-4.40;99.90
12708;DHT22;6418;50.824;4.718;2022-12-18T09:48:23;-4.30;99.90
12708;DHT22;6418;50.824;4.718;2022-12-18T09:50:55;-4.30;99.90
12708;DHT22;6418;50.824;4.718;2022-12-18T09:53:27;-4.20;99.90
12708;DHT22;6418;50.824;4.718;2022-12-18T09:55:56;-4.20;99.90
12708;DHT22;6418;50.824;4.718;2022-12-18T09:58:29;-4.10;99.90
12708;DHT22;6418;50.824;4.718;2022-12-18T10:00:58;-4.10;99.90
12708;DHT22;6418;50.824;4.718;2022-12-18T10:03:25;-4.00;99.90
12708;DHT22;6418;50.824;4.718;2022-12-18T10:05:59;-3.90;99.90
12708;DHT22;6418;50.824;4.718;2022-12-18T10:08:36;-3.90;99.90
12708;DHT22;6418;50.824;4.718;2022-12-18T10:11:22;-3.80;99.90
12708;DHT22;6418;50.824;4.718;2022-12-18T10:13:58;-3.80;99.90
12708;DHT22;6418;50.824;4.718;2022-12-18T10:16:32;-3.70;99.90
12708;DHT22;6418;50.824;4.718;2022-12-18T10:19:09;-3.70;99.90
12708;DHT22;6418;50.824;4.718;2022-12-18T10:21:42;-3.60;99.90
12708;DHT22;6418;50.824;4.718;2022-12-18T10:24:17;-3.50;99.90
12708;DHT22;6418;50.824;4.718;2022-12-18T10:26:48;-3.50;99.90
12708;DHT22;6418;50.824;4.718;2022-12-18T10:29:17;-3.40;99.90
12708;DHT22;6418;50.824;4.718;2022-12-18T10:31:44;-3.40;99.90
12708;DHT22;6418;50.824;4.718;2022-12-18T10:34:11;-3.30;99.90
12708;DHT22;6418;50.824;4.718;2022-12-18T10:36:38;-3.30;99.90
12708;DHT22;6418;50.824;4.718;2022-12-18T10:39:15;-3.30;99.90
12708;DHT22;6418;50.824;4.718;2022-12-18T10:41:42;-3.20;99.90
12708;DHT22;6418;50.824;4.718;2022-12-18T10:44:14;-3.20;99.90
12708;DHT22;6418;50.824;4.718;2022-12-18T10:46:44;-3.20;99.90
12708;DHT22;6418;50.824;4.718;2022-12-18T10:49:25;-3.10;99.90
12708;DHT22;6418;50.824;4.718;2022-12-18T10:52:07;-3.10;99.90
12708;DHT22;6418;50.824;4.718;2022-12-18T10:54:38;-3.00;99.90
12708;DHT22;6418;50.824;4.718;2022-12-18T10:57:29;-3.00;99.90
12708;DHT22;6418;50.824;4.718;2022-12-18T10:59:59;-2.90;99.90
12708;DHT22;6418;50.824;4.718;2022-12-18T11:02:34;-2.90;99.90
12708;DHT22;6418;50.824;4.718;2022-12-18T11:05:04;-2.80;99.90
12708;DHT22;6418;50.824;4.718;2022-12-18T11:07:49;-2.80;99.90
12708;DHT22;6418;50.824;4.718;2022-12-18T11:10:20;-2.70;99.90
12708;DHT22;6418;50.824;4.718;2022-12-18T11:12:48;-2.70;99.90
12708;DHT22;6418;50.824;4.718;2022-12-18T11:15:16;-2.70;99.90
12708;DHT22;6418;50.824;4.718;2022-12-18T11:17:48;-2.60;99.90
12708;DHT22;6418;50.824;4.718;2022-12-18T11:20:29;-2.50;99.90
12708;DHT22;6418;50.824;4.718;2022-12-18T11:22:58;-2.50;99.90
12708;DHT22;6418;50.824;4.718;2022-12-18T11:25:26;-2.40;99.90
12708;DHT22;6418;50.824;4.718;2022-12-18T11:27:55;-2.40;99.90
12708;DHT22;6418;50.824;4.718;2022-12-18T11:30:24;-2.30;99.90
12708;DHT22;6418;50.824;4.718;2022-12-18T11:33:02;-2.30;99.90
12708;DHT22;6418;50.824;4.718;2022-12-18T11:35:37;-2.30;99.90
12708;DHT22;6418;50.824;4.718;2022-12-18T11:38:12;-2.20;99.90
12708;DHT22;6418;50.824;4.718;2022-12-18T11:40:42;-2.10;99.90
12708;DHT22;6418;50.824;4.718;2022-12-18T11:43:14;-2.10;99.90
12708;DHT22;6418;50.824;4.718;2022-12-18T11:45:47;-2.10;99.90
12708;DHT22;6418;50.824;4.718;2022-12-18T11:48:22;-2.00;99.90
12708;DHT22;6418;50.824;4.718;2022-12-18T11:50:51;-2.00;99.90
12708;DHT22;6418;50.824;4.718;2022-12-18T11:53:19;-1.90;99.90
12708;DHT22;6418;50.824;4.718;2022-12-18T11:55:58;-1.90;99.90
12708;DHT22;6418;50.824;4.718;2022-12-18T11:58:41;-1.90;99.90
12708;DHT22;6418;50.824;4.718;2022-12-18T12:01:20;-1.80;99.90
12708;DHT22;6418;50.824;4.718;2022-12-18T12:04:06;-1.80;99.90
12708;DHT22;6418;50.824;4.718;2022-12-18T12:06:40;-1.70;99.90
12708;DHT22;6418;50.824;4.718;2022-12-18T12:09:15;-1.70;99.90
12708;DHT22;6418;50.824;4.718;2022-12-18T12:11:53;-1.60;99.90
12708;DHT22;6418;50.824;4.718;2022-12-18T12:14:49;-1.60;99.90
12708;DHT22;6418;50.824;4.718;2022-12-18T12:17:27;-1.60;99.90
12708;DHT22;6418;50.824;4.718;2022-12-18T12:20:04;-1.50;99.90
12708;DHT22;6418;50.824;4.718;2022-12-18T12:22:39;-1.50;99.90
12708;DHT22;6418;50.824;4.718;2022-12-18T12:25:29;-1.40;99.90
12708;DHT22;6418;50.824;4.718;2022-12-18T12:28:07;-1.40;99.90
12708;DHT22;6418;50.824;4.718;2022-12-18T12:30:49;-1.30;99.90
12708;DHT22;6418;50.824;4.718;2022-12-18T12:33:29;-1.30;99.90
12708;DHT22;6418;50.824;4.718;2022-12-18T12:36:04;-1.20;99.90
12708;DHT22;6418;50.824;4.718;2022-12-18T12:38:35;-1.20;99.90
12708;DHT22;6418;50.824;4.718;2022-12-18T12:41:06;-1.20;99.90
12708;DHT22;6418;50.824;4.718;2022-12-18T12:43:57;-1.10;99.90
12708;DHT22;6418;50.824;4.718;2022-12-18T12:46:24;-1.10;99.90
12708;DHT22;6418;50.824;4.718;2022-12-18T12:48:53;-1.10;99.90
12708;DHT22;6418;50.824;4.718;2022-12-18T12:51:26;-1.00;99.90
12708;DHT22;6418;50.824;4.718;2022-12-18T12:53:55;-1.00;99.90
12708;DHT22;6418;50.824;4.718;2022-12-18T12:56:26;-0.90;99.90
12708;DHT22;6418;50.824;4.718;2022-12-18T12:58:59;-1.00;99.90
12708;DHT22;6418;50.824;4.718;2022-12-18T13:01:34;-1.00;99.90
12708;DHT22;6418;50.824;4.718;2022-12-18T13:04:12;-0.90;99.90
12708;DHT22;6418;50.824;4.718;2022-12-18T13:06:46;-0.90;99.90
12708;DHT22;6418;50.824;4.718;2022-12-18T13:09:16;-0.90;99.90
12708;DHT22;6418;50.824;4.718;2022-12-18T13:11:44;-0.80;99.90
12708;DHT22;6418;50.824;4.718;2022-12-18T13:14:31;-0.90;99.90
12708;DHT22;6418;50.824;4.718;2022-12-18T13:17:26;-0.80;99.90
12708;DHT22;6418;50.824;4.718;2022-12-18T13:20:08;-0.80;99.90
12708;DHT22;6418;50.824;4.718;2022-12-18T13:22:38;-0.80;99.90
12708;DHT22;6418;50.824;4.718;2022-12-18T13:25:30;-0.80;99.90
12708;DHT22;6418;50.824;4.718;2022-12-18T13:28:05;-0.80;99.90
12708;DHT22;6418;50.824;4.718;2022-12-18T13:30:54;-0.80;99.90
12708;DHT22;6418;50.824;4.718;2022-12-18T13:33:40;-0.80;99.90
12708;DHT22;6418;50.824;4.718;2022-12-18T13:36:23;-0.70;99.90
12708;DHT22;6418;50.824;4.718;2022-12-18T13:39:15;-0.70;99.90
12708;DHT22;6418;50.824;4.718;2022-12-18T13:41:48;-0.80;99.90
12708;DHT22;6418;50.824;4.718;2022-12-18T13:44:24;-0.70;99.90
12708;DHT22;6418;50.824;4.718;2022-12-18T13:46:52;-0.70;99.90
12708;DHT22;6418;50.824;4.718;2022-12-18T13:49:22;-0.70;99.90
12708;DHT22;6418;50.824;4.718;2022-12-18T13:51:52;-0.70;99.90
12708;DHT22;6418;50.824;4.718;2022-12-18T13:54:25;-0.80;99.90
12708;DHT22;6418;50.824;4.718;2022-12-18T13:56:55;-0.80;99.90
12708;DHT22;6418;50.824;4.718;2022-12-18T13:59:23;-0.80;99.90
12708;DHT22;6418;50.824;4.718;2022-12-18T14:01:53;-0.80;99.90
12708;DHT22;6418;50.824;4.718;2022-12-18T14:04:23;-0.70;99.90
12708;DHT22;6418;50.824;4.718;2022-12-18T14:06:53;-0.80;99.90
12708;DHT22;6418;50.824;4.718;2022-12-18T14:09:25;-0.80;99.90
12708;DHT22;6418;50.824;4.718;2022-12-18T14:11:53;-0.80;99.90
12708;DHT22;6418;50.824;4.718;2022-12-18T14:14:44;-0.80;99.90
12708;DHT22;6418;50.824;4.718;2022-12-18T14:17:13;-0.80;99.90
12708;DHT22;6418;50.824;4.718;2022-12-18T14:19:43;-0.80;99.90
12708;DHT22;6418;50.824;4.718;2022-12-18T14:22:16;-0.80;99.90
12708;DHT22;6418;50.824;4.718;2022-12-18T14:24:45;-0.80;99.90
12708;DHT22;6418;50.824;4.718;2022-12-18T14:27:19;-0.80;99.90
12708;DHT22;6418;50.824;4.718;2022-12-18T14:29:47;-0.80;99.90
12708;DHT22;6418;50.824;4.718;2022-12-18T14:32:15;-0.80;99.90
12708;DHT22;6418;50.824;4.718;2022-12-18T14:34:44;-0.80;99.90
12708;DHT22;6418;50.824;4.718;2022-12-18T14:37:13;-0.80;99.90
12708;DHT22;6418;50.824;4.718;2022-12-18T14:39:53;-0.80;99.90
12708;DHT22;6418;50.824;4.718;2022-12-18T14:42:20;-0.80;99.90
12708;DHT22;6418;50.824;4.718;2022-12-18T14:44:47;-0.80;99.90
12708;DHT22;6418;50.824;4.718;2022-12-18T14:47:15;-0.80;99.90
12708;DHT22;6418;50.824;4.718;2022-12-18T14:49:42;-0.80;99.90
12708;DHT22;6418;50.824;4.718;2022-12-18T14:52:18;-0.90;99.90
12708;DHT22;6418;50.824;4.718;2022-12-18T14:54:47;-0.90;99.90
12708;DHT22;6418;50.824;4.718;2022-12-18T14:57:21;-0.80;99.90
12708;DHT22;6418;50.824;4.718;2022-12-18T14:59:49;-0.90;99.90
12708;DHT22;6418;50.824;4.718;2022-12-18T15:02:20;-0.90;99.90
12708;DHT22;6418;50.824;4.718;2022-12-18T15:04:48;-0.90;99.90
12708;DHT22;6418;50.824;4.718;2022-12-18T15:07:25;-0.90;99.90
12708;DHT22;6418;50.824;4.718;2022-12-18T15:10:09;-0.90;99.90
12708;DHT22;6418;50.824;4.718;2022-12-18T15:12:41;-0.90;99.90
12708;DHT22;6418;50.824;4.718;2022-12-18T15:18:12;-0.90;99.90
12708;DHT22;6418;50.824;4.718;2022-12-18T15:20:42;-0.90;99.90
12708;DHT22;6418;50.824;4.718;2022-12-18T15:23:16;-0.90;99.90
12708;DHT22;6418;50.824;4.718;2022-12-18T15:25:44;-0.90;99.90
12708;DHT22;6418;50.824;4.718;2022-12-18T15:28:21;-1.00;99.90
12708;DHT22;6418;50.824;4.718;2022-12-18T15:31:05;-1.00;99.90
12708;DHT22;6418;50.824;4.718;2022-12-18T15:33:34;-0.90;99.90
12708;DHT22;6418;50.824;4.718;2022-12-18T15:36:03;-1.00;99.90
12708;DHT22;6418;50.824;4.718;2022-12-18T15:38:31;-1.00;99.90
12708;DHT22;6418;50.824;4.718;2022-12-18T15:40:58;-1.00;99.90
12708;DHT22;6418;50.824;4.718;2022-12-18T15:43:27;-1.00;99.90
12708;DHT22;6418;50.824;4.718;2022-12-18T15:46:08;-1.00;99.90
12708;DHT22;6418;50.824;4.718;2022-12-18T15:48:38;-1.00;99.90
12708;DHT22;6418;50.824;4.718;2022-12-18T15:51:11;-1.00;99.90
12708;DHT22;6418;50.824;4.718;2022-12-18T15:53:38;-1.00;99.90
12708;DHT22;6418;50.824;4.718;2022-12-18T15:56:09;-1.00;99.90
12708;DHT22;6418;50.824;4.718;2022-12-18T15:58:55;-1.00;99.90
12708;DHT22;6418;50.824;4.718;2022-12-18T16:01:24;-1.00;99.90
12708;DHT22;6418;50.824;4.718;2022-12-18T16:03:51;-1.00;99.90
12708;DHT22;6418;50.824;4.718;2022-12-18T16:06:19;-1.00;99.90
12708;DHT22;6418;50.824;4.718;2022-12-18T16:08:46;-1.00;99.90